.
WxDataArchive / Data Records for 2009-10-19
2009-10-18 October 2009 2009-10-20

Data Records for Monday, 19 October 2009

Time	Temp	Chill	HIndex	Humid	Dewpt	 Wind 	HiWind	WindDir	Rain 	Barom 
-----	----	-----	------	-----	-----	------	------	-------	-----	----- 
00:00	37.5	37.5	37.5	83	32.8	0	0	---	0.00	30.221 
00:05	37.3	37.3	37.3	83	32.6	0	0	---	0.00	30.221 
00:10	37.3	37.3	37.3	83	32.6	0	0	---	0.00	30.221 
00:15	37.2	37.2	37.2	83	32.5	0	0	---	0.00	30.218 
00:20	37.0	37.0	37.0	83	32.3	0	0	---	0.00	30.218 
00:25	37.0	37.0	37.0	84	32.6	0	0	---	0.00	30.218 
00:30	37.0	37.0	37.0	84	32.6	0	0	---	0.00	30.215 
00:35	37.0	37.0	37.0	84	32.6	0	0	---	0.00	30.215 
00:40	37.0	37.0	37.0	84	32.6	0	0	---	0.00	30.215 
00:45	37.0	37.0	37.0	84	32.6	0	0	---	0.00	30.217 
00:50	37.0	37.0	37.0	84	32.6	0	0	---	0.00	30.217 
00:55	37.2	37.2	37.2	84	32.8	0	0	---	0.00	30.217 
01:00	37.3	37.3	37.3	84	32.9	0	1	248	0.00	30.212 
01:05	37.5	37.5	37.5	83	32.8	0	0	---	0.00	30.212 
01:10	37.6	37.6	37.6	83	32.9	0	0	---	0.00	30.212 
01:15	37.8	37.8	37.8	82	32.8	0	0	---	0.00	30.206 
01:20	37.8	37.8	37.8	82	32.8	0	0	---	0.00	30.206 
01:25	38.0	38.0	38.0	82	33.0	0	0	---	0.00	30.206 
01:30	38.0	38.0	38.0	81	32.7	0	0	---	0.00	30.206 
01:35	38.2	38.2	38.2	81	32.9	0	1	248	0.00	30.206 
01:40	38.2	38.2	38.2	80	32.6	0	0	---	0.00	30.206 
01:45	38.3	38.3	38.3	80	32.7	0	0	---	0.00	30.210 
01:50	38.3	38.3	38.3	80	32.7	0	0	---	0.00	30.210 
01:55	38.3	38.3	38.3	79	32.4	0	0	---	0.00	30.210 
02:00	38.3	38.3	38.3	80	32.7	0	0	---	0.00	30.211 
02:05	38.2	38.2	38.2	79	32.3	0	0	---	0.00	30.211 
02:10	38.2	38.2	38.2	79	32.3	0	0	---	0.00	30.211 
02:15	38.0	38.0	38.0	79	32.1	0	0	---	0.00	30.215 
02:20	38.0	38.0	38.0	79	32.1	0	0	---	0.00	30.215 
02:25	37.9	37.9	37.9	80	32.3	0	0	---	0.00	30.215 
02:30	37.9	37.9	37.9	80	32.3	0	0	---	0.00	30.220 
02:35	37.8	37.8	37.8	80	32.2	0	0	---	0.00	30.220 
02:40	37.8	37.8	37.8	80	32.2	0	0	---	0.00	30.220 
02:45	37.6	37.6	37.6	80	32.0	0	0	---	0.00	30.216 
02:50	37.6	37.6	37.6	80	32.0	0	0	---	0.00	30.216 
02:55	37.5	37.5	37.5	80	31.9	0	0	---	0.00	30.216 
03:00	37.3	37.3	37.3	81	32.0	0	0	---	0.00	30.220 
03:05	37.2	37.2	37.2	81	31.9	0	0	---	0.00	30.220 
03:10	37.0	37.0	37.0	81	31.7	0	0	---	0.00	30.220 
03:15	36.9	36.9	36.9	82	31.9	0	0	---	0.00	30.218 
03:20	36.8	36.8	36.8	82	31.8	0	1	248	0.00	30.218 
03:25	36.6	36.6	36.6	83	31.9	0	0	---	0.00	30.218 
03:30	36.6	36.6	36.6	83	31.9	0	1	248	0.00	30.218 
03:35	36.6	36.6	36.6	84	32.2	0	0	---	0.00	30.218 
03:40	36.6	36.6	36.6	83	31.9	0	0	---	0.00	30.218 
03:45	36.5	36.5	36.5	83	31.8	0	0	---	0.00	30.211 
03:50	36.5	36.5	36.5	83	31.8	0	0	---	0.00	30.211 
03:55	36.3	36.3	36.3	84	31.9	0	0	---	0.00	30.211 
04:00	36.5	36.5	36.5	84	32.1	0	1	248	0.00	30.210 
04:05	36.5	36.5	36.5	84	32.1	0	0	---	0.00	30.210 
04:10	36.5	36.5	36.5	84	32.1	0	1	248	0.00	30.210 
04:15	36.5	36.5	36.5	84	32.1	0	0	---	0.00	30.208 
04:20	36.5	36.5	36.5	84	32.1	0	0	---	0.00	30.208 
04:25	36.6	36.6	36.6	83	31.9	0	1	248	0.00	30.208 
04:30	36.6	36.6	36.6	83	31.9	0	2	248	0.00	30.206 
04:35	36.6	36.6	36.6	83	31.9	0	3	248	0.00	30.206 
04:40	36.8	36.8	36.8	83	32.1	0	1	248	0.00	30.206 
04:45	36.8	36.8	36.8	83	32.1	0	0	---	0.00	30.207 
04:50	36.8	36.8	36.8	83	32.1	0	1	248	0.00	30.207 
04:55	36.8	36.8	36.8	83	32.1	0	1	248	0.00	30.207 
05:00	36.8	36.8	36.8	83	32.1	0	0	---	0.00	30.208 
05:05	36.8	36.8	36.8	82	31.8	0	2	248	0.00	30.208 
05:10	36.8	36.8	36.8	82	31.8	0	1	248	0.00	30.208 
05:15	36.8	36.8	36.8	82	31.8	0	0	---	0.00	30.208 
05:20	36.8	36.8	36.8	82	31.8	0	1	248	0.00	30.208 
05:25	36.8	36.8	36.8	82	31.8	0	1	248	0.00	30.208 
05:30	36.8	36.8	36.8	83	32.1	0	0	---	0.00	30.209 
05:35	36.8	36.8	36.8	83	32.1	0	1	248	0.00	30.209 
05:40	36.8	36.8	36.8	83	32.1	0	0	---	0.00	30.209 
05:45	36.8	36.8	36.8	83	32.1	0	2	248	0.00	30.212 
05:50	36.9	36.9	36.9	83	32.2	0	2	248	0.00	30.212 
05:55	37.0	37.0	37.0	83	32.3	0	3	248	0.00	30.212 
06:00	37.3	37.3	37.3	82	32.3	0	2	248	0.00	30.213 
06:05	37.5	37.5	37.5	82	32.5	0	2	248	0.00	30.213 
06:10	37.8	37.8	37.8	81	32.5	0	2	248	0.00	30.213 
06:15	37.8	37.8	37.8	81	32.5	0	3	248	0.00	30.213 
06:20	37.9	37.9	37.9	81	32.6	0	4	248	0.00	30.213 
06:25	38.0	38.0	38.0	81	32.7	0	1	248	0.00	30.213 
06:30	38.2	38.2	38.2	80	32.6	0	3	248	0.00	30.210 
06:35	38.3	38.3	38.3	80	32.7	0	2	248	0.00	30.210 
06:40	38.3	38.3	38.3	80	32.7	0	2	225	0.00	30.210 
06:45	38.3	38.3	38.3	80	32.7	0	2	225	0.00	30.211 
06:50	38.2	38.2	38.2	79	32.3	0	2	225	0.00	30.211 
06:55	38.0	38.0	38.0	80	32.4	0	1	225	0.00	30.211 
07:00	37.9	37.9	37.9	80	32.3	0	2	225	0.00	30.210 
07:05	37.9	37.9	37.9	80	32.3	1	3	225	0.00	30.210 
07:10	37.9	37.9	37.9	80	32.3	0	2	248	0.00	30.210 
07:15	37.9	37.9	37.9	80	32.3	0	2	248	0.00	30.214 
07:20	38.0	38.0	38.0	80	32.4	0	3	248	0.00	30.214 
07:25	38.0	38.0	38.0	80	32.4	0	1	248	0.00	30.214 
07:30	38.2	38.2	38.2	80	32.6	1	3	248	0.00	30.213 
07:35	38.3	38.3	38.3	80	32.7	0	2	248	0.00	30.213 
07:40	38.5	38.5	38.5	80	32.9	0	3	248	0.00	30.213 
07:45	38.5	38.5	38.5	79	32.6	0	2	248	0.00	30.207 
07:50	38.5	38.5	38.5	79	32.6	0	2	248	0.00	30.207 
07:55	38.6	38.6	38.6	79	32.7	0	3	292	0.00	30.207 
08:00	38.8	38.8	38.8	79	32.9	0	2	292	0.00	30.207 
08:05	38.8	38.8	38.8	79	32.9	0	3	292	0.00	30.207 
08:10	38.9	38.9	38.9	78	32.6	1	4	292	0.00	30.207 
08:15	39.2	39.2	39.2	78	32.9	1	6	270	0.00	30.203 
08:20	39.3	39.3	39.3	78	33.0	1	2	270	0.00	30.203 
08:25	39.3	39.3	39.3	77	32.7	1	4	270	0.00	30.203 
08:30	39.6	39.6	39.6	77	33.0	1	5	248	0.00	30.198 
08:35	39.9	39.9	39.9	76	33.0	1	5	248	0.00	30.198 
08:40	40.2	40.2	40.2	75	32.9	1	3	225	0.00	30.198 
08:45	40.5	40.5	40.5	75	33.2	1	3	248	0.00	30.196 
08:50	40.6	40.6	40.6	75	33.3	1	3	225	0.00	30.196 
08:55	40.6	40.6	40.6	74	33.0	1	4	248	0.00	30.196 
09:00	40.9	40.9	40.9	73	32.9	1	4	248	0.00	30.195 
09:05	41.2	41.2	41.2	73	33.2	1	3	248	0.00	30.195 
09:10	41.6	41.6	41.6	72	33.3	1	4	270	0.00	30.195 
09:15	42.2	42.2	42.2	70	33.1	2	5	248	0.00	30.195 
09:20	42.8	42.8	42.8	69	33.3	1	3	270	0.00	30.195 
09:25	43.2	43.2	43.2	69	33.7	1	6	248	0.00	30.195 
09:30	43.6	43.6	43.6	68	33.7	2	9	248	0.00	30.193 
09:35	44.1	44.1	44.1	67	33.9	1	6	248	0.00	30.193 
09:40	44.5	44.5	44.5	66	33.9	1	6	248	0.00	30.193 
09:45	44.9	44.9	44.9	65	33.9	2	5	248	0.00	30.193 
09:50	45.4	45.4	45.4	65	34.3	1	4	248	0.00	30.193 
09:55	46.0	46.0	46.0	63	34.1	1	6	248	0.00	30.193 
10:00	46.2	46.2	46.2	62	33.9	2	5	270	0.00	30.191 
10:05	46.4	46.4	46.4	62	34.1	1	4	248	0.00	30.191 
10:10	46.7	46.7	46.7	61	34.0	2	5	248	0.00	30.191 
10:15	47.1	47.1	47.1	62	34.8	2	9	248	0.00	30.185 
10:20	47.7	47.7	47.7	60	34.5	3	11	248	0.00	30.185 
10:25	48.0	48.0	48.0	59	34.4	2	7	248	0.00	30.185 
10:30	48.2	48.2	48.2	58	34.1	2	6	248	0.00	30.183 
10:35	48.5	48.5	48.5	59	34.8	2	5	270	0.00	30.183 
10:40	48.8	48.8	48.8	59	35.1	2	6	248	0.00	30.183 
10:45	49.1	49.1	49.1	58	35.0	2	7	270	0.00	30.176 
10:50	49.4	49.4	49.4	59	35.7	2	5	292	0.00	30.176 
10:55	49.6	49.6	49.6	57	35.0	3	7	248	0.00	30.176 
11:00	50.1	50.1	50.1	56	35.0	3	7	248	0.00	30.173 
11:05	50.4	50.4	50.4	55	34.8	3	9	270	0.00	30.173 
11:10	50.7	50.7	50.7	56	35.6	2	9	270	0.00	30.173 
11:15	51.0	51.0	51.0	54	34.9	3	11	270	0.00	30.163 
11:20	51.1	51.1	51.1	55	35.5	2	5	270	0.00	30.163 
11:25	51.3	51.3	51.3	54	35.2	3	7	248	0.00	30.163 
11:30	51.4	51.4	51.4	54	35.3	2	4	292	0.00	30.159 
11:35	51.7	51.7	51.7	54	35.6	2	6	270	0.00	30.159 
11:40	51.9	51.9	51.9	54	35.8	3	10	270	0.00	30.159 
11:45	52.3	52.3	52.3	54	36.2	2	7	270	0.00	30.155 
11:50	52.5	52.5	52.5	53	35.9	3	9	248	0.00	30.155 
11:55	52.9	52.9	52.9	53	36.2	3	6	248	0.00	30.155 
12:00	53.1	53.1	53.1	50	35.0	4	13	270	0.00	30.151 
12:05	53.5	53.5	53.5	52	36.3	3	9	248	0.00	30.151 
12:10	53.9	53.9	53.9	50	35.7	4	10	248	0.00	30.151 
12:15	54.2	54.2	54.2	50	36.0	3	8	248	0.00	30.144 
12:20	54.5	54.5	54.5	49	35.7	3	7	270	0.00	30.144 
12:25	54.8	54.8	54.8	49	36.0	4	10	270	0.00	30.144 
12:30	55.1	55.1	55.1	49	36.3	3	7	270	0.00	30.139 
12:35	55.7	55.7	55.7	51	37.9	2	10	270	0.00	30.139 
12:40	55.7	55.7	55.7	47	35.8	4	10	292	0.00	30.139 
12:45	55.6	55.6	55.6	49	36.7	2	6	270	0.00	30.130 
12:50	55.7	55.7	55.7	49	36.8	3	10	248	0.00	30.130 
12:55	56.0	56.0	56.0	48	36.6	2	7	270	0.00	30.130 
13:00	56.3	56.3	56.3	46	35.8	2	9	248	0.00	30.123 
13:05	56.3	56.3	56.3	47	36.3	4	9	270	0.00	30.123 
13:10	56.3	56.3	56.3	47	36.3	3	5	270	0.00	30.123 
13:15	56.5	56.5	56.5	46	36.0	3	10	270	0.00	30.116 
13:20	56.9	56.9	56.9	45	35.8	2	6	248	0.00	30.116 
13:25	57.0	57.0	57.0	45	35.9	2	6	248	0.00	30.116 
13:30	57.0	57.0	57.0	45	35.9	3	10	248	0.00	30.106 
13:35	57.0	57.0	57.0	46	36.4	3	9	270	0.00	30.106 
13:40	56.9	56.9	56.9	44	35.2	3	7	270	0.00	30.106 
13:45	56.9	56.9	56.9	45	35.8	2	6	248	0.00	30.101 
13:50	57.3	57.3	57.3	43	35.0	3	10	270	0.00	30.101 
13:55	57.5	57.5	57.5	44	35.8	3	10	270	0.00	30.101 
14:00	57.8	57.8	57.8	45	36.6	2	9	248	0.00	30.088 
14:05	58.3	58.3	58.3	43	35.9	2	6	248	0.00	30.088 
14:10	58.6	58.6	58.6	43	36.2	3	10	292	0.00	30.088 
14:15	58.7	58.7	58.7	42	35.7	2	6	292	0.00	30.081 
14:20	59.2	59.2	59.2	45	37.9	1	3	338	0.00	30.081 
14:25	59.2	59.2	59.2	41	35.5	3	7	270	0.00	30.081 
14:30	58.7	58.7	58.7	43	36.3	2	8	270	0.00	30.074 
14:35	58.7	58.7	58.7	41	35.1	3	7	315	0.00	30.074 
14:40	58.9	58.9	58.9	42	35.9	2	12	270	0.00	30.074 
14:45	58.7	58.7	58.7	41	35.1	3	7	270	0.00	30.072 
14:50	58.9	58.9	58.9	42	35.9	2	5	248	0.00	30.072 
14:55	58.9	58.9	58.9	42	35.9	2	5	270	0.00	30.072 
15:00	58.4	58.4	58.4	41	34.8	2	6	248	0.00	30.068 
15:05	58.1	58.1	58.1	41	34.5	2	7	270	0.00	30.068 
15:10	58.0	58.0	58.0	42	35.0	2	5	292	0.00	30.068 
15:15	58.0	58.0	58.0	42	35.0	2	7	248	0.00	30.062 
15:20	58.3	58.3	58.3	41	34.7	2	11	270	0.00	30.062 
15:25	58.6	58.6	58.6	41	35.0	2	6	248	0.00	30.062 
15:30	58.9	58.9	58.9	42	35.9	1	6	22	0.00	30.058 
15:35	59.0	59.0	59.0	41	35.3	2	6	248	0.00	30.058 
15:40	59.3	59.3	59.3	41	35.6	3	10	248	0.00	30.058 
15:45	59.6	59.6	59.6	41	35.9	1	5	270	0.00	30.055 
15:50	59.9	59.9	59.9	41	36.1	1	4	225	0.00	30.055 
15:55	60.1	60.1	60.1	41	36.3	2	4	90	0.00	30.055 
16:00	60.1	60.1	60.1	40	35.7	2	7	248	0.00	30.047 
16:05	60.1	60.1	60.1	40	35.7	2	6	248	0.00	30.047 
16:10	59.9	59.9	59.9	40	35.5	2	6	68	0.00	30.047 
16:15	59.8	59.8	59.8	41	36.1	2	7	270	0.00	30.040 
16:20	59.9	59.9	59.9	41	36.1	2	7	270	0.00	30.040 
16:25	60.1	60.1	60.1	40	35.7	3	7	248	0.00	30.040 
16:30	60.1	60.1	60.1	40	35.7	2	6	248	0.00	30.038 
16:35	60.2	60.2	60.2	40	35.8	1	5	225	0.00	30.038 
16:40	60.2	60.2	60.2	39	35.2	2	6	270	0.00	30.038 
16:45	60.2	60.2	60.2	40	35.8	1	6	22	0.00	30.036 
16:50	60.2	60.2	60.2	39	35.2	2	7	90	0.00	30.036 
16:55	60.2	60.2	60.2	40	35.8	1	6	248	0.00	30.036 
17:00	60.2	60.2	60.2	38	34.5	3	6	270	0.00	30.037 
17:05	60.4	60.4	60.4	40	36.0	1	5	248	0.00	30.037 
17:10	60.4	60.4	60.4	41	36.6	1	3	270	0.00	30.037 
17:15	60.4	60.4	60.4	42	37.2	1	4	270	0.00	30.040 
17:20	60.4	60.4	60.4	40	36.0	1	5	292	0.00	30.040 
17:25	60.4	60.4	60.4	40	36.0	2	6	248	0.00	30.040 
17:30	60.5	60.5	60.5	39	35.4	1	5	292	0.00	30.029 
17:35	60.5	60.5	60.5	40	36.1	1	5	68	0.00	30.029 
17:40	60.5	60.5	60.5	40	36.1	1	7	0	0.00	30.029 
17:45	60.4	60.4	60.4	40	36.0	1	5	45	0.00	30.026 
17:50	60.4	60.4	60.4	39	35.3	2	6	248	0.00	30.026 
17:55	60.4	60.4	60.4	40	36.0	1	5	270	0.00	30.026 
18:00	60.2	60.2	60.2	40	35.8	0	2	292	0.00	30.026 
18:05	60.1	60.1	60.1	40	35.7	1	6	248	0.00	30.026 
18:10	59.9	59.9	59.9	41	36.1	1	3	248	0.00	30.026 
18:15	59.6	59.6	59.6	40	35.3	1	4	292	0.00	30.024 
18:20	59.5	59.5	59.5	42	36.4	1	4	248	0.00	30.024 
18:25	59.5	59.5	59.5	42	36.4	1	6	270	0.00	30.024 
18:30	59.2	59.2	59.2	42	36.1	0	1	270	0.00	30.030 
18:35	58.9	58.9	58.9	43	36.4	0	3	270	0.00	30.030 
18:40	58.6	58.6	58.6	43	36.2	1	3	90	0.00	30.030 
18:45	58.4	58.4	58.4	43	36.0	1	5	248	0.00	30.027 
18:50	58.3	58.3	58.3	43	35.9	1	4	248	0.00	30.027 
18:55	58.1	58.1	58.1	44	36.3	1	4	248	0.00	30.027 
19:00	58.0	58.0	58.0	44	36.2	0	3	248	0.00	30.028 
19:05	57.6	57.6	57.6	44	35.8	0	2	248	0.00	30.028 
19:10	57.3	57.3	57.3	45	36.1	0	1	248	0.00	30.028 
19:15	56.9	56.9	56.9	46	36.3	0	2	248	0.00	30.026 
19:20	56.6	56.6	56.6	47	36.6	0	1	248	0.00	30.026 
19:25	56.3	56.3	56.3	48	36.9	0	2	248	0.00	30.026 
19:30	56.2	56.2	56.2	48	36.8	0	3	0	0.00	30.028 
19:35	56.2	56.2	56.2	49	37.3	0	1	338	0.00	30.028 
19:40	56.0	56.0	56.0	49	37.1	0	3	292	0.00	30.028 
19:45	55.9	55.9	55.9	49	37.0	1	3	248	0.00	30.030 
19:50	55.7	55.7	55.7	50	37.3	0	1	292	0.00	30.030 
19:55	55.4	55.4	55.4	50	37.1	0	1	292	0.00	30.030 
20:00	55.4	55.4	55.4	50	37.1	0	4	292	0.00	30.034 
20:05	55.4	55.4	55.4	50	37.1	0	4	292	0.00	30.034 
20:10	55.4	55.4	55.4	50	37.1	1	4	248	0.00	30.034 
20:15	55.4	55.4	55.4	50	37.1	0	3	248	0.00	30.036 
20:20	55.3	55.3	55.3	50	37.0	0	1	248	0.00	30.036 
20:25	55.3	55.3	55.3	50	37.0	1	5	248	0.00	30.036 
20:30	55.3	55.3	55.3	50	37.0	0	2	270	0.00	30.038 
20:35	55.1	55.1	55.1	50	36.8	0	1	270	0.00	30.038 
20:40	55.0	55.0	55.0	50	36.7	1	5	248	0.00	30.038 
20:45	55.0	55.0	55.0	50	36.7	1	5	248	0.00	30.040 
20:50	55.0	55.0	55.0	50	36.7	1	4	248	0.00	30.040 
20:55	55.0	55.0	55.0	50	36.7	0	3	248	0.00	30.040 
21:00	54.8	54.8	54.8	50	36.5	0	3	248	0.00	30.042 
21:05	54.8	54.8	54.8	51	37.0	0	2	292	0.00	30.042 
21:10	54.7	54.7	54.7	51	36.9	0	2	292	0.00	30.042 
21:15	54.4	54.4	54.4	52	37.1	0	3	248	0.00	30.044 
21:20	54.2	54.2	54.2	52	37.0	0	2	248	0.00	30.044 
21:25	54.1	54.1	54.1	52	36.9	0	3	270	0.00	30.044 
21:30	54.1	54.1	54.1	53	37.4	0	3	270	0.00	30.053 
21:35	54.1	54.1	54.1	53	37.4	0	3	248	0.00	30.053 
21:40	53.9	53.9	53.9	53	37.2	0	2	248	0.00	30.053 
21:45	53.8	53.8	53.8	54	37.5	0	3	248	0.00	30.057 
21:50	53.8	53.8	53.8	54	37.5	0	2	225	0.00	30.057 
21:55	53.6	53.6	53.6	54	37.4	0	2	225	0.00	30.057 
22:00	53.5	53.5	53.5	54	37.3	0	3	225	0.00	30.066 
22:05	53.3	53.3	53.3	55	37.5	0	1	225	0.00	30.066 
22:10	53.2	53.2	53.2	55	37.5	0	2	225	0.00	30.066 
22:15	53.1	53.1	53.1	56	37.8	0	2	225	0.00	30.068 
22:20	52.8	52.8	52.8	56	37.5	0	1	225	0.00	30.068 
22:25	52.6	52.6	52.6	57	37.8	0	1	225	0.00	30.068 
22:30	52.3	52.3	52.3	57	37.5	0	1	225	0.00	30.070 
22:35	52.2	52.2	52.2	58	37.9	0	1	225	0.00	30.070 
22:40	51.9	51.9	51.9	58	37.6	0	2	225	0.00	30.070 
22:45	51.7	51.7	51.7	58	37.4	0	1	225	0.00	30.072 
22:50	51.6	51.6	51.6	59	37.7	0	2	225	0.00	30.072 
22:55	51.4	51.4	51.4	59	37.6	0	1	225	0.00	30.072 
23:00	51.4	51.4	51.4	59	37.6	0	3	225	0.00	30.073 
23:05	51.3	51.3	51.3	60	37.9	0	3	225	0.00	30.073 
23:10	51.3	51.3	51.3	60	37.9	0	1	225	0.00	30.073 
23:15	51.1	51.1	51.1	60	37.7	0	2	225	0.00	30.076 
23:20	51.1	51.1	51.1	60	37.7	0	1	225	0.00	30.076 
23:25	51.1	51.1	51.1	60	37.7	0	1	225	0.00	30.076 
23:30	51.1	51.1	51.1	61	38.1	0	1	225	0.00	30.079 
23:35	51.0	51.0	51.0	61	38.0	0	1	225	0.00	30.079 
23:40	50.8	50.8	50.8	61	37.8	0	1	225	0.00	30.079 
23:45	50.7	50.7	50.7	61	37.7	0	1	225	0.00	30.080 
23:50	50.7	50.7	50.7	62	38.2	0	3	225	0.00	30.080 
23:55	50.5	50.5	50.5	62	38.0	0	1	225	0.00	30.080 

CoCoRaHS
IN-AL-39
A2 Web Hosting
Creative Commons License
GoDaddy
search engine by freefind advanced

loaded 2018-11-20 08:30:36 • last modified 2010-11-18 10:43:29
Privacy PolicyDisclaimer
• wx.awcolley.com is powered by PmWiki v.2002016 •
• all content (unless otherwise noted) © 2018 A W Colley